sensor_id;sensor_type;location;lat;lon;timestamp;P1;durP1;ratioP1;P2;durP2;ratioP2
64826;SDS011;51265;53.972;12.286;2022-12-11T00:01:38;26.90;;;9.70;;
64826;SDS011;51265;53.972;12.286;2022-12-11T00:04:03;27.75;;;11.32;;
64826;SDS011;51265;53.972;12.286;2022-12-11T00:06:30;29.30;;;10.40;;
64826;SDS011;51265;53.972;12.286;2022-12-11T00:08:56;28.92;;;10.77;;
64826;SDS011;51265;53.972;12.286;2022-12-11T00:11:22;25.65;;;10.68;;
64826;SDS011;51265;53.972;12.286;2022-12-11T00:13:48;27.38;;;11.13;;
64826;SDS011;51265;53.972;12.286;2022-12-11T00:16:14;33.45;;;12.15;;
64826;SDS011;51265;53.972;12.286;2022-12-11T00:18:41;27.83;;;11.32;;
64826;SDS011;51265;53.972;12.286;2022-12-11T00:21:09;30.42;;;11.43;;
64826;SDS011;51265;53.972;12.286;2022-12-11T00:23:39;31.00;;;10.88;;
64826;SDS011;51265;53.972;12.286;2022-12-11T00:26:06;29.00;;;11.63;;
64826;SDS011;51265;53.972;12.286;2022-12-11T00:28:34;28.83;;;10.68;;
64826;SDS011;51265;53.972;12.286;2022-12-11T00:31:04;28.05;;;11.38;;
64826;SDS011;51265;53.972;12.286;2022-12-11T00:33:31;29.50;;;10.93;;
64826;SDS011;51265;53.972;12.286;2022-12-11T00:35:57;37.00;;;12.25;;
64826;SDS011;51265;53.972;12.286;2022-12-11T00:38:24;29.80;;;11.23;;
64826;SDS011;51265;53.972;12.286;2022-12-11T00:40:50;32.97;;;13.30;;
64826;SDS011;51265;53.972;12.286;2022-12-11T00:43:16;30.33;;;12.10;;
64826;SDS011;51265;53.972;12.286;2022-12-11T00:45:44;30.80;;;12.45;;
64826;SDS011;51265;53.972;12.286;2022-12-11T00:48:11;32.72;;;12.90;;
64826;SDS011;51265;53.972;12.286;2022-12-11T00:50:38;30.00;;;12.10;;
64826;SDS011;51265;53.972;12.286;2022-12-11T00:53:05;35.95;;;12.35;;
64826;SDS011;51265;53.972;12.286;2022-12-11T00:55:35;32.55;;;12.77;;
64826;SDS011;51265;53.972;12.286;2022-12-11T00:58:02;37.13;;;13.43;;
64826;SDS011;51265;53.972;12.286;2022-12-11T01:00:28;33.72;;;12.95;;
64826;SDS011;51265;53.972;12.286;2022-12-11T01:02:54;36.22;;;13.35;;
64826;SDS011;51265;53.972;12.286;2022-12-11T01:05:20;41.40;;;14.20;;
64826;SDS011;51265;53.972;12.286;2022-12-11T01:07:46;32.13;;;11.82;;
64826;SDS011;51265;53.972;12.286;2022-12-11T01:10:13;28.63;;;11.68;;
64826;SDS011;51265;53.972;12.286;2022-12-11T01:12:55;36.47;;;13.05;;
64826;SDS011;51265;53.972;12.286;2022-12-11T01:15:27;33.90;;;13.05;;
64826;SDS011;51265;53.972;12.286;2022-12-11T01:17:55;29.80;;;11.57;;
64826;SDS011;51265;53.972;12.286;2022-12-11T01:20:22;36.63;;;13.35;;
64826;SDS011;51265;53.972;12.286;2022-12-11T01:22:53;32.08;;;12.13;;
64826;SDS011;51265;53.972;12.286;2022-12-11T01:25:20;29.15;;;11.98;;
64826;SDS011;51265;53.972;12.286;2022-12-11T01:27:49;23.73;;;10.50;;
64826;SDS011;51265;53.972;12.286;2022-12-11T01:30:28;29.67;;;11.27;;
64826;SDS011;51265;53.972;12.286;2022-12-11T01:32:54;27.30;;;11.35;;
64826;SDS011;51265;53.972;12.286;2022-12-11T01:35:20;32.45;;;12.55;;
64826;SDS011;51265;53.972;12.286;2022-12-11T01:37:46;27.52;;;11.45;;
64826;SDS011;51265;53.972;12.286;2022-12-11T01:40:14;28.67;;;11.88;;
64826;SDS011;51265;53.972;12.286;2022-12-11T01:42:41;32.28;;;11.55;;
64826;SDS011;51265;53.972;12.286;2022-12-11T01:47:49;29.02;;;11.10;;
64826;SDS011;51265;53.972;12.286;2022-12-11T01:50:19;29.52;;;12.20;;
64826;SDS011;51265;53.972;12.286;2022-12-11T01:52:46;31.20;;;11.80;;
64826;SDS011;51265;53.972;12.286;2022-12-11T01:55:14;27.98;;;11.93;;
64826;SDS011;51265;53.972;12.286;2022-12-11T01:57:42;34.95;;;13.27;;
64826;SDS011;51265;53.972;12.286;2022-12-11T02:00:11;27.95;;;11.30;;
64826;SDS011;51265;53.972;12.286;2022-12-11T02:02:43;34.45;;;12.00;;
64826;SDS011;51265;53.972;12.286;2022-12-11T02:05:10;28.23;;;12.10;;
64826;SDS011;51265;53.972;12.286;2022-12-11T02:07:37;29.98;;;11.30;;
64826;SDS011;51265;53.972;12.286;2022-12-11T02:10:13;26.20;;;11.13;;
64826;SDS011;51265;53.972;12.286;2022-12-11T02:18:12;26.10;;;11.00;;
64826;SDS011;51265;53.972;12.286;2022-12-11T02:31:53;28.55;;;11.30;;
64826;SDS011;51265;53.972;12.286;2022-12-11T02:34:28;26.33;;;10.15;;
64826;SDS011;51265;53.972;12.286;2022-12-11T02:37:01;32.03;;;11.25;;
64826;SDS011;51265;53.972;12.286;2022-12-11T02:39:31;22.30;;;11.18;;
64826;SDS011;51265;53.972;12.286;2022-12-11T02:42:01;32.20;;;12.70;;
64826;SDS011;51265;53.972;12.286;2022-12-11T02:44:29;31.23;;;11.52;;
64826;SDS011;51265;53.972;12.286;2022-12-11T02:46:58;32.88;;;12.23;;
64826;SDS011;51265;53.972;12.286;2022-12-11T02:49:27;32.30;;;12.85;;
64826;SDS011;51265;53.972;12.286;2022-12-11T02:51:55;28.17;;;12.25;;
64826;SDS011;51265;53.972;12.286;2022-12-11T02:54:27;31.13;;;12.18;;
64826;SDS011;51265;53.972;12.286;2022-12-11T02:57:00;33.08;;;11.93;;
64826;SDS011;51265;53.972;12.286;2022-12-11T03:00:49;27.27;;;10.45;;
64826;SDS011;51265;53.972;12.286;2022-12-11T03:03:15;25.25;;;11.40;;
64826;SDS011;51265;53.972;12.286;2022-12-11T03:05:41;30.05;;;12.65;;
64826;SDS011;51265;53.972;12.286;2022-12-11T03:08:07;30.35;;;13.00;;
64826;SDS011;51265;53.972;12.286;2022-12-11T03:10:34;27.75;;;11.75;;
64826;SDS011;51265;53.972;12.286;2022-12-11T03:13:00;29.23;;;11.60;;
64826;SDS011;51265;53.972;12.286;2022-12-11T03:20:57;29.58;;;12.48;;
64826;SDS011;51265;53.972;12.286;2022-12-11T03:26:22;28.02;;;12.13;;
64826;SDS011;51265;53.972;12.286;2022-12-11T03:28:59;27.48;;;12.35;;
64826;SDS011;51265;53.972;12.286;2022-12-11T03:31:40;31.25;;;12.45;;
64826;SDS011;51265;53.972;12.286;2022-12-11T03:34:15;28.83;;;11.95;;
64826;SDS011;51265;53.972;12.286;2022-12-11T03:36:47;30.40;;;12.32;;
64826;SDS011;51265;53.972;12.286;2022-12-11T03:39:18;28.10;;;12.13;;
64826;SDS011;51265;53.972;12.286;2022-12-11T03:41:50;29.27;;;12.05;;
64826;SDS011;51265;53.972;12.286;2022-12-11T03:44:19;30.00;;;12.43;;
64826;SDS011;51265;53.972;12.286;2022-12-11T03:46:47;28.90;;;12.48;;
64826;SDS011;51265;53.972;12.286;2022-12-11T03:49:20;25.63;;;11.75;;
64826;SDS011;51265;53.972;12.286;2022-12-11T03:51:49;28.40;;;12.32;;
64826;SDS011;51265;53.972;12.286;2022-12-11T03:54:17;26.50;;;11.02;;
64826;SDS011;51265;53.972;12.286;2022-12-11T03:56:45;28.05;;;12.15;;
64826;SDS011;51265;53.972;12.286;2022-12-11T03:59:12;26.88;;;11.88;;
64826;SDS011;51265;53.972;12.286;2022-12-11T04:01:39;26.50;;;11.82;;
64826;SDS011;51265;53.972;12.286;2022-12-11T04:04:05;27.48;;;11.95;;
64826;SDS011;51265;53.972;12.286;2022-12-11T04:06:31;27.75;;;11.88;;
64826;SDS011;51265;53.972;12.286;2022-12-11T04:08:57;30.50;;;13.40;;
64826;SDS011;51265;53.972;12.286;2022-12-11T04:11:23;28.35;;;12.68;;
64826;SDS011;51265;53.972;12.286;2022-12-11T04:14:09;26.88;;;11.32;;
64826;SDS011;51265;53.972;12.286;2022-12-11T04:16:56;23.40;;;12.43;;
64826;SDS011;51265;53.972;12.286;2022-12-11T04:19:24;26.08;;;11.90;;
64826;SDS011;51265;53.972;12.286;2022-12-11T04:22:29;27.52;;;11.13;;
64826;SDS011;51265;53.972;12.286;2022-12-11T04:25:14;28.80;;;11.90;;
64826;SDS011;51265;53.972;12.286;2022-12-11T04:27:40;27.77;;;11.75;;
64826;SDS011;51265;53.972;12.286;2022-12-11T04:30:19;27.85;;;11.45;;
64826;SDS011;51265;53.972;12.286;2022-12-11T04:32:51;24.80;;;11.80;;
64826;SDS011;51265;53.972;12.286;2022-12-11T04:35:18;28.55;;;11.57;;
64826;SDS011;51265;53.972;12.286;2022-12-11T04:37:44;28.52;;;12.40;;
64826;SDS011;51265;53.972;12.286;2022-12-11T04:40:12;24.40;;;10.57;;
64826;SDS011;51265;53.972;12.286;2022-12-11T04:42:39;29.00;;;12.15;;
64826;SDS011;51265;53.972;12.286;2022-12-11T04:45:06;29.48;;;11.75;;
64826;SDS011;51265;53.972;12.286;2022-12-11T04:47:34;29.45;;;11.70;;
64826;SDS011;51265;53.972;12.286;2022-12-11T04:50:01;27.10;;;12.02;;
64826;SDS011;51265;53.972;12.286;2022-12-11T04:52:28;27.80;;;12.25;;
64826;SDS011;51265;53.972;12.286;2022-12-11T04:54:54;29.75;;;11.23;;
64826;SDS011;51265;53.972;12.286;2022-12-11T04:57:21;26.35;;;11.82;;
64826;SDS011;51265;53.972;12.286;2022-12-11T04:59:47;25.95;;;9.95;;
64826;SDS011;51265;53.972;12.286;2022-12-11T05:02:14;27.60;;;10.75;;
64826;SDS011;51265;53.972;12.286;2022-12-11T05:04:41;24.85;;;10.60;;
64826;SDS011;51265;53.972;12.286;2022-12-11T05:07:07;26.63;;;11.52;;
64826;SDS011;51265;53.972;12.286;2022-12-11T05:09:34;26.52;;;10.77;;
64826;SDS011;51265;53.972;12.286;2022-12-11T05:12:01;26.75;;;11.65;;
64826;SDS011;51265;53.972;12.286;2022-12-11T05:14:27;21.08;;;10.82;;
64826;SDS011;51265;53.972;12.286;2022-12-11T05:16:57;25.58;;;10.65;;
64826;SDS011;51265;53.972;12.286;2022-12-11T05:19:24;27.92;;;12.38;;
64826;SDS011;51265;53.972;12.286;2022-12-11T05:21:50;24.77;;;10.27;;
64826;SDS011;51265;53.972;12.286;2022-12-11T05:24:16;21.17;;;10.25;;
64826;SDS011;51265;53.972;12.286;2022-12-11T05:26:42;30.08;;;12.15;;
64826;SDS011;51265;53.972;12.286;2022-12-11T05:29:08;27.95;;;10.85;;
64826;SDS011;51265;53.972;12.286;2022-12-11T05:31:34;20.95;;;9.80;;
64826;SDS011;51265;53.972;12.286;2022-12-11T05:34:00;25.50;;;10.55;;
64826;SDS011;51265;53.972;12.286;2022-12-11T05:36:30;25.77;;;11.15;;
64826;SDS011;51265;53.972;12.286;2022-12-11T05:38:58;27.20;;;11.32;;
64826;SDS011;51265;53.972;12.286;2022-12-11T05:41:25;24.80;;;11.35;;
64826;SDS011;51265;53.972;12.286;2022-12-11T05:43:52;26.75;;;10.60;;
64826;SDS011;51265;53.972;12.286;2022-12-11T05:46:23;27.92;;;10.95;;
64826;SDS011;51265;53.972;12.286;2022-12-11T05:48:54;21.30;;;9.73;;
64826;SDS011;51265;53.972;12.286;2022-12-11T05:51:22;23.55;;;10.00;;
64826;SDS011;51265;53.972;12.286;2022-12-11T05:53:49;25.02;;;11.35;;
64826;SDS011;51265;53.972;12.286;2022-12-11T05:56:18;27.52;;;11.40;;
64826;SDS011;51265;53.972;12.286;2022-12-11T05:58:47;26.92;;;11.25;;
64826;SDS011;51265;53.972;12.286;2022-12-11T06:01:15;25.55;;;10.52;;
64826;SDS011;51265;53.972;12.286;2022-12-11T06:03:46;25.57;;;11.37;;
64826;SDS011;51265;53.972;12.286;2022-12-11T06:06:13;30.17;;;11.38;;
64826;SDS011;51265;53.972;12.286;2022-12-11T06:08:39;23.48;;;10.63;;
64826;SDS011;51265;53.972;12.286;2022-12-11T06:11:06;25.60;;;10.98;;
64826;SDS011;51265;53.972;12.286;2022-12-11T06:13:32;24.58;;;10.48;;
64826;SDS011;51265;53.972;12.286;2022-12-11T06:16:00;24.55;;;10.32;;
64826;SDS011;51265;53.972;12.286;2022-12-11T06:18:27;22.25;;;10.52;;
64826;SDS011;51265;53.972;12.286;2022-12-11T06:20:53;23.10;;;9.20;;
64826;SDS011;51265;53.972;12.286;2022-12-11T06:23:19;24.17;;;10.38;;
64826;SDS011;51265;53.972;12.286;2022-12-11T06:25:45;24.25;;;10.70;;
64826;SDS011;51265;53.972;12.286;2022-12-11T06:28:11;26.77;;;10.93;;
64826;SDS011;51265;53.972;12.286;2022-12-11T06:30:37;25.92;;;11.00;;
64826;SDS011;51265;53.972;12.286;2022-12-11T06:33:03;28.27;;;13.52;;
64826;SDS011;51265;53.972;12.286;2022-12-11T06:35:29;25.45;;;11.90;;
64826;SDS011;51265;53.972;12.286;2022-12-11T06:37:55;22.65;;;10.90;;
64826;SDS011;51265;53.972;12.286;2022-12-11T06:40:21;26.83;;;11.63;;
64826;SDS011;51265;53.972;12.286;2022-12-11T06:42:47;25.92;;;9.90;;
64826;SDS011;51265;53.972;12.286;2022-12-11T06:45:13;25.02;;;10.10;;
64826;SDS011;51265;53.972;12.286;2022-12-11T06:47:39;23.80;;;11.15;;
64826;SDS011;51265;53.972;12.286;2022-12-11T06:50:05;24.60;;;10.60;;
64826;SDS011;51265;53.972;12.286;2022-12-11T06:52:31;24.65;;;10.82;;
64826;SDS011;51265;53.972;12.286;2022-12-11T06:54:57;23.65;;;10.23;;
64826;SDS011;51265;53.972;12.286;2022-12-11T06:57:23;24.13;;;10.90;;
64826;SDS011;51265;53.972;12.286;2022-12-11T06:59:49;23.95;;;9.38;;
64826;SDS011;51265;53.972;12.286;2022-12-11T07:02:16;23.05;;;10.65;;
64826;SDS011;51265;53.972;12.286;2022-12-11T07:04:44;25.38;;;9.73;;
64826;SDS011;51265;53.972;12.286;2022-12-11T07:07:10;26.15;;;11.25;;
64826;SDS011;51265;53.972;12.286;2022-12-11T07:09:37;24.08;;;11.32;;
64826;SDS011;51265;53.972;12.286;2022-12-11T07:12:04;26.67;;;11.27;;
64826;SDS011;51265;53.972;12.286;2022-12-11T07:14:31;26.75;;;11.20;;
64826;SDS011;51265;53.972;12.286;2022-12-11T07:16:58;26.67;;;10.75;;
64826;SDS011;51265;53.972;12.286;2022-12-11T07:19:24;23.80;;;9.98;;
64826;SDS011;51265;53.972;12.286;2022-12-11T07:21:51;20.92;;;9.30;;
64826;SDS011;51265;53.972;12.286;2022-12-11T07:24:17;24.40;;;10.90;;
64826;SDS011;51265;53.972;12.286;2022-12-11T07:26:43;22.95;;;10.23;;
64826;SDS011;51265;53.972;12.286;2022-12-11T07:29:09;26.23;;;10.35;;
64826;SDS011;51265;53.972;12.286;2022-12-11T07:31:36;25.40;;;11.00;;
64826;SDS011;51265;53.972;12.286;2022-12-11T07:34:03;24.88;;;10.55;;
64826;SDS011;51265;53.972;12.286;2022-12-11T07:36:31;25.95;;;10.10;;
64826;SDS011;51265;53.972;12.286;2022-12-11T07:38:58;22.20;;;9.82;;
64826;SDS011;51265;53.972;12.286;2022-12-11T07:41:26;25.25;;;10.50;;
64826;SDS011;51265;53.972;12.286;2022-12-11T07:43:54;25.20;;;10.52;;
64826;SDS011;51265;53.972;12.286;2022-12-11T07:46:21;20.95;;;9.68;;
64826;SDS011;51265;53.972;12.286;2022-12-11T07:48:49;23.73;;;9.65;;
64826;SDS011;51265;53.972;12.286;2022-12-11T07:53:43;27.25;;;10.40;;
64826;SDS011;51265;53.972;12.286;2022-12-11T07:56:11;29.13;;;11.13;;
64826;SDS011;51265;53.972;12.286;2022-12-11T07:58:37;28.48;;;11.70;;
64826;SDS011;51265;53.972;12.286;2022-12-11T08:01:09;28.73;;;11.45;;
64826;SDS011;51265;53.972;12.286;2022-12-11T08:03:37;26.17;;;11.20;;
64826;SDS011;51265;53.972;12.286;2022-12-11T08:06:03;26.00;;;11.07;;
64826;SDS011;51265;53.972;12.286;2022-12-11T08:08:30;28.15;;;11.10;;
64826;SDS011;51265;53.972;12.286;2022-12-11T08:11:01;27.45;;;11.18;;
64826;SDS011;51265;53.972;12.286;2022-12-11T08:13:27;27.45;;;11.30;;
64826;SDS011;51265;53.972;12.286;2022-12-11T08:15:53;25.02;;;10.50;;
64826;SDS011;51265;53.972;12.286;2022-12-11T08:18:19;24.45;;;10.48;;
64826;SDS011;51265;53.972;12.286;2022-12-11T08:20:45;30.23;;;11.18;;
64826;SDS011;51265;53.972;12.286;2022-12-11T08:23:11;25.45;;;11.77;;
64826;SDS011;51265;53.972;12.286;2022-12-11T08:25:37;24.27;;;9.90;;
64826;SDS011;51265;53.972;12.286;2022-12-11T08:28:03;25.52;;;11.05;;
64826;SDS011;51265;53.972;12.286;2022-12-11T08:30:30;25.90;;;10.43;;
64826;SDS011;51265;53.972;12.286;2022-12-11T08:33:15;25.27;;;10.57;;
64826;SDS011;51265;53.972;12.286;2022-12-11T08:35:41;26.10;;;11.13;;
64826;SDS011;51265;53.972;12.286;2022-12-11T08:38:08;24.85;;;11.00;;
64826;SDS011;51265;53.972;12.286;2022-12-11T08:40:34;24.80;;;10.88;;
64826;SDS011;51265;53.972;12.286;2022-12-11T08:43:00;25.05;;;10.50;;
64826;SDS011;51265;53.972;12.286;2022-12-11T08:45:26;26.02;;;10.15;;
64826;SDS011;51265;53.972;12.286;2022-12-11T08:47:52;27.83;;;11.38;;
64826;SDS011;51265;53.972;12.286;2022-12-11T08:50:18;30.48;;;12.18;;
64826;SDS011;51265;53.972;12.286;2022-12-11T08:52:44;25.88;;;10.85;;
64826;SDS011;51265;53.972;12.286;2022-12-11T08:55:10;27.13;;;11.38;;
64826;SDS011;51265;53.972;12.286;2022-12-11T08:57:37;27.55;;;11.13;;
64826;SDS011;51265;53.972;12.286;2022-12-11T09:00:06;23.85;;;9.90;;
64826;SDS011;51265;53.972;12.286;2022-12-11T09:02:34;25.80;;;10.82;;
64826;SDS011;51265;53.972;12.286;2022-12-11T09:05:00;21.55;;;10.73;;
64826;SDS011;51265;53.972;12.286;2022-12-11T09:07:26;23.90;;;10.93;;
64826;SDS011;51265;53.972;12.286;2022-12-11T09:09:55;25.23;;;10.73;;
64826;SDS011;51265;53.972;12.286;2022-12-11T09:12:21;27.27;;;11.07;;
64826;SDS011;51265;53.972;12.286;2022-12-11T09:14:47;25.73;;;10.80;;
64826;SDS011;51265;53.972;12.286;2022-12-11T09:17:13;26.00;;;11.20;;
64826;SDS011;51265;53.972;12.286;2022-12-11T09:19:39;26.23;;;12.02;;
64826;SDS011;51265;53.972;12.286;2022-12-11T09:22:05;27.40;;;12.02;;
64826;SDS011;51265;53.972;12.286;2022-12-11T09:24:31;27.40;;;12.00;;
64826;SDS011;51265;53.972;12.286;2022-12-11T09:26:57;27.98;;;12.52;;
64826;SDS011;51265;53.972;12.286;2022-12-11T09:29:23;29.27;;;11.48;;
64826;SDS011;51265;53.972;12.286;2022-12-11T09:31:49;26.35;;;10.93;;
64826;SDS011;51265;53.972;12.286;2022-12-11T09:34:15;24.95;;;10.93;;
64826;SDS011;51265;53.972;12.286;2022-12-11T09:36:42;24.05;;;10.55;;
64826;SDS011;51265;53.972;12.286;2022-12-11T09:39:09;23.95;;;11.30;;
64826;SDS011;51265;53.972;12.286;2022-12-11T09:44:34;25.08;;;10.63;;
64826;SDS011;51265;53.972;12.286;2022-12-11T09:47:22;23.30;;;10.25;;
64826;SDS011;51265;53.972;12.286;2022-12-11T09:50:14;27.23;;;10.80;;
64826;SDS011;51265;53.972;12.286;2022-12-11T09:55:22;27.67;;;11.80;;
64826;SDS011;51265;53.972;12.286;2022-12-11T09:57:56;25.67;;;10.45;;
64826;SDS011;51265;53.972;12.286;2022-12-11T10:00:40;30.60;;;12.35;;
64826;SDS011;51265;53.972;12.286;2022-12-11T10:08:33;27.20;;;11.13;;
64826;SDS011;51265;53.972;12.286;2022-12-11T10:16:56;28.63;;;11.50;;
64826;SDS011;51265;53.972;12.286;2022-12-11T10:19:28;29.83;;;12.90;;
64826;SDS011;51265;53.972;12.286;2022-12-11T10:21:56;30.00;;;12.80;;
64826;SDS011;51265;53.972;12.286;2022-12-11T10:27:49;30.58;;;13.25;;
64826;SDS011;51265;53.972;12.286;2022-12-11T10:35:22;29.48;;;14.07;;
64826;SDS011;51265;53.972;12.286;2022-12-11T10:37:54;30.25;;;13.70;;
64826;SDS011;51265;53.972;12.286;2022-12-11T10:40:43;29.50;;;13.52;;
64826;SDS011;51265;53.972;12.286;2022-12-11T10:43:12;29.40;;;11.57;;
64826;SDS011;51265;53.972;12.286;2022-12-11T10:45:38;30.50;;;13.57;;
64826;SDS011;51265;53.972;12.286;2022-12-11T10:48:05;30.60;;;13.88;;
64826;SDS011;51265;53.972;12.286;2022-12-11T10:50:34;34.70;;;13.55;;
64826;SDS011;51265;53.972;12.286;2022-12-11T10:53:00;27.40;;;13.43;;
64826;SDS011;51265;53.972;12.286;2022-12-11T10:55:35;29.55;;;13.18;;
64826;SDS011;51265;53.972;12.286;2022-12-11T10:58:14;38.20;;;14.30;;
64826;SDS011;51265;53.972;12.286;2022-12-11T11:00:44;34.00;;;15.95;;
64826;SDS011;51265;53.972;12.286;2022-12-11T11:03:24;39.15;;;16.20;;
64826;SDS011;51265;53.972;12.286;2022-12-11T11:08:43;38.85;;;16.13;;
64826;SDS011;51265;53.972;12.286;2022-12-11T11:16:53;40.28;;;15.77;;
64826;SDS011;51265;53.972;12.286;2022-12-11T11:21:48;39.35;;;16.38;;
64826;SDS011;51265;53.972;12.286;2022-12-11T11:24:27;46.63;;;18.15;;
64826;SDS011;51265;53.972;12.286;2022-12-11T11:26:59;42.38;;;17.45;;
64826;SDS011;51265;53.972;12.286;2022-12-11T11:29:32;45.45;;;16.00;;
64826;SDS011;51265;53.972;12.286;2022-12-11T11:32:02;42.42;;;16.67;;
64826;SDS011;51265;53.972;12.286;2022-12-11T11:34:43;43.00;;;16.90;;
64826;SDS011;51265;53.972;12.286;2022-12-11T11:37:23;49.42;;;17.77;;
64826;SDS011;51265;53.972;12.286;2022-12-11T11:39:55;45.90;;;17.23;;
64826;SDS011;51265;53.972;12.286;2022-12-11T11:42:31;41.50;;;17.40;;
64826;SDS011;51265;53.972;12.286;2022-12-11T11:45:27;46.47;;;16.98;;
64826;SDS011;51265;53.972;12.286;2022-12-11T11:50:43;43.53;;;16.10;;
64826;SDS011;51265;53.972;12.286;2022-12-11T11:53:12;47.90;;;15.90;;
64826;SDS011;51265;53.972;12.286;2022-12-11T11:58:25;42.63;;;16.27;;
64826;SDS011;51265;53.972;12.286;2022-12-11T12:01:01;41.08;;;15.13;;
64826;SDS011;51265;53.972;12.286;2022-12-11T12:03:27;39.05;;;16.73;;
64826;SDS011;51265;53.972;12.286;2022-12-11T12:06:09;40.17;;;15.15;;
64826;SDS011;51265;53.972;12.286;2022-12-11T12:11:52;38.20;;;15.27;;
64826;SDS011;51265;53.972;12.286;2022-12-11T12:17:31;34.67;;;14.02;;
64826;SDS011;51265;53.972;12.286;2022-12-11T12:22:50;28.88;;;12.07;;
64826;SDS011;51265;53.972;12.286;2022-12-11T12:34:20;30.20;;;13.10;;
64826;SDS011;51265;53.972;12.286;2022-12-11T12:45:09;28.98;;;12.55;;
64826;SDS011;51265;53.972;12.286;2022-12-11T12:47:59;25.48;;;11.32;;
64826;SDS011;51265;53.972;12.286;2022-12-11T12:50:28;27.23;;;11.30;;
64826;SDS011;51265;53.972;12.286;2022-12-11T12:53:03;24.80;;;10.70;;
64826;SDS011;51265;53.972;12.286;2022-12-11T12:55:31;22.23;;;9.35;;
64826;SDS011;51265;53.972;12.286;2022-12-11T12:58:00;21.48;;;8.85;;
64826;SDS011;51265;53.972;12.286;2022-12-11T13:00:35;18.20;;;7.43;;
64826;SDS011;51265;53.972;12.286;2022-12-11T13:03:15;11.52;;;5.93;;
64826;SDS011;51265;53.972;12.286;2022-12-11T13:06:05;8.45;;;4.57;;
64826;SDS011;51265;53.972;12.286;2022-12-11T13:08:39;8.32;;;4.55;;
64826;SDS011;51265;53.972;12.286;2022-12-11T13:11:11;9.45;;;5.00;;
64826;SDS011;51265;53.972;12.286;2022-12-11T13:13:42;10.57;;;4.53;;
64826;SDS011;51265;53.972;12.286;2022-12-11T13:18:40;6.28;;;3.60;;
64826;SDS011;51265;53.972;12.286;2022-12-11T13:24:09;9.10;;;3.83;;
64826;SDS011;51265;53.972;12.286;2022-12-11T13:26:37;5.82;;;3.75;;
64826;SDS011;51265;53.972;12.286;2022-12-11T13:29:04;10.80;;;3.85;;
64826;SDS011;51265;53.972;12.286;2022-12-11T13:31:32;7.90;;;3.53;;
64826;SDS011;51265;53.972;12.286;2022-12-11T13:34:16;6.55;;;3.47;;
64826;SDS011;51265;53.972;12.286;2022-12-11T13:36:51;6.05;;;3.28;;
64826;SDS011;51265;53.972;12.286;2022-12-11T13:39:23;5.65;;;3.25;;
64826;SDS011;51265;53.972;12.286;2022-12-11T13:44:54;5.93;;;3.38;;
64826;SDS011;51265;53.972;12.286;2022-12-11T13:47:20;6.18;;;3.10;;
64826;SDS011;51265;53.972;12.286;2022-12-11T13:49:47;6.38;;;3.10;;
64826;SDS011;51265;53.972;12.286;2022-12-11T13:52:27;5.57;;;3.03;;
64826;SDS011;51265;53.972;12.286;2022-12-11T13:54:54;5.45;;;3.38;;
64826;SDS011;51265;53.972;12.286;2022-12-11T13:57:24;5.40;;;3.33;;
64826;SDS011;51265;53.972;12.286;2022-12-11T13:59:53;5.47;;;3.17;;
64826;SDS011;51265;53.972;12.286;2022-12-11T14:02:23;5.30;;;3.10;;
64826;SDS011;51265;53.972;12.286;2022-12-11T14:04:55;7.40;;;3.72;;
64826;SDS011;51265;53.972;12.286;2022-12-11T14:07:25;6.60;;;4.32;;
64826;SDS011;51265;53.972;12.286;2022-12-11T14:09:55;6.28;;;3.53;;
64826;SDS011;51265;53.972;12.286;2022-12-11T14:12:26;5.40;;;3.67;;
64826;SDS011;51265;53.972;12.286;2022-12-11T14:14:55;7.13;;;4.18;;
64826;SDS011;51265;53.972;12.286;2022-12-11T14:17:24;4.63;;;2.88;;
64826;SDS011;51265;53.972;12.286;2022-12-11T14:19:53;6.13;;;3.38;;
64826;SDS011;51265;53.972;12.286;2022-12-11T14:22:22;6.55;;;3.05;;
64826;SDS011;51265;53.972;12.286;2022-12-11T14:24:57;6.57;;;3.85;;
64826;SDS011;51265;53.972;12.286;2022-12-11T14:27:28;13.93;;;4.30;;
64826;SDS011;51265;53.972;12.286;2022-12-11T14:29:54;8.73;;;3.63;;
64826;SDS011;51265;53.972;12.286;2022-12-11T14:32:28;9.90;;;3.85;;
64826;SDS011;51265;53.972;12.286;2022-12-11T14:34:55;12.15;;;5.10;;
64826;SDS011;51265;53.972;12.286;2022-12-11T14:37:22;14.52;;;4.60;;
64826;SDS011;51265;53.972;12.286;2022-12-11T14:39:55;7.50;;;4.20;;
64826;SDS011;51265;53.972;12.286;2022-12-11T14:42:22;8.52;;;4.13;;
64826;SDS011;51265;53.972;12.286;2022-12-11T14:44:55;19.02;;;5.07;;
64826;SDS011;51265;53.972;12.286;2022-12-11T14:47:33;11.68;;;5.40;;
64826;SDS011;51265;53.972;12.286;2022-12-11T14:50:05;13.93;;;5.23;;
64826;SDS011;51265;53.972;12.286;2022-12-11T14:52:47;12.52;;;4.97;;
64826;SDS011;51265;53.972;12.286;2022-12-11T14:57:50;14.55;;;5.47;;
64826;SDS011;51265;53.972;12.286;2022-12-11T15:00:32;12.03;;;5.10;;
64826;SDS011;51265;53.972;12.286;2022-12-11T15:05:32;11.70;;;6.18;;
64826;SDS011;51265;53.972;12.286;2022-12-11T15:13:27;11.63;;;6.00;;
64826;SDS011;51265;53.972;12.286;2022-12-11T15:15:53;11.68;;;5.85;;
64826;SDS011;51265;53.972;12.286;2022-12-11T15:20:59;11.85;;;5.15;;
64826;SDS011;51265;53.972;12.286;2022-12-11T15:23:28;16.02;;;6.57;;
64826;SDS011;51265;53.972;12.286;2022-12-11T15:25:56;14.23;;;6.50;;
64826;SDS011;51265;53.972;12.286;2022-12-11T15:30:57;14.48;;;6.70;;
64826;SDS011;51265;53.972;12.286;2022-12-11T15:33:25;15.00;;;6.95;;
64826;SDS011;51265;53.972;12.286;2022-12-11T15:35:55;13.98;;;6.35;;
64826;SDS011;51265;53.972;12.286;2022-12-11T15:40:54;11.50;;;6.47;;
64826;SDS011;51265;53.972;12.286;2022-12-11T15:43:21;14.52;;;6.63;;
64826;SDS011;51265;53.972;12.286;2022-12-11T15:45:47;13.30;;;6.05;;
64826;SDS011;51265;53.972;12.286;2022-12-11T15:48:13;16.00;;;6.10;;
64826;SDS011;51265;53.972;12.286;2022-12-11T15:50:39;13.27;;;6.22;;
64826;SDS011;51265;53.972;12.286;2022-12-11T15:53:06;11.07;;;5.45;;
64826;SDS011;51265;53.972;12.286;2022-12-11T15:55:32;15.15;;;5.80;;
64826;SDS011;51265;53.972;12.286;2022-12-11T15:58:05;16.58;;;7.30;;
64826;SDS011;51265;53.972;12.286;2022-12-11T16:00:34;13.05;;;6.68;;
64826;SDS011;51265;53.972;12.286;2022-12-11T16:03:00;13.48;;;6.45;;
64826;SDS011;51265;53.972;12.286;2022-12-11T16:05:26;12.77;;;6.38;;
64826;SDS011;51265;53.972;12.286;2022-12-11T16:07:52;15.32;;;6.20;;
64826;SDS011;51265;53.972;12.286;2022-12-11T16:10:24;14.93;;;6.18;;
64826;SDS011;51265;53.972;12.286;2022-12-11T16:12:50;11.05;;;5.70;;
64826;SDS011;51265;53.972;12.286;2022-12-11T16:15:17;12.13;;;6.00;;
64826;SDS011;51265;53.972;12.286;2022-12-11T16:17:43;12.95;;;6.43;;
64826;SDS011;51265;53.972;12.286;2022-12-11T16:20:09;19.45;;;7.13;;
64826;SDS011;51265;53.972;12.286;2022-12-11T16:22:36;14.50;;;5.93;;
64826;SDS011;51265;53.972;12.286;2022-12-11T16:25:02;15.48;;;6.38;;
64826;SDS011;51265;53.972;12.286;2022-12-11T16:27:30;17.85;;;7.25;;
64826;SDS011;51265;53.972;12.286;2022-12-11T16:29:56;16.95;;;6.95;;
64826;SDS011;51265;53.972;12.286;2022-12-11T16:32:22;26.38;;;7.00;;